Weather observations for the past three days for
Hays, Hays Regional Airport
Imperial (Metric)
Date Time (cdt) Wind (mph) Vis. (mi.) Weather Sky Cond. Temperature (ºF) Relative Humidity Wind Chill (°F) Heat Index (°F) Pressure Precipitation (in)
Air Dwpt 6 hour altimeter (in) sea level (mb) 1 hr 3 hr 6 hr
Max. Min.
04 07:56 S 8 10.00 Fair CLR 75 69.1 82% 75 29.91 1010.7
04 06:56 S 7 10.00 Fair CLR 73 68 82.9 73 84% 29.9 1010.1
04 05:56 S 8 10.00 Fair CLR 73.9 66.9 79% 29.9 1010.0
04 04:56 S 8 10.00 Fair CLR 75 66.9 76% 76 29.9 1010.2
04 03:56 S 10 10.00 Fair CLR 77 66.9 71% 79 29.89 1009.5
04 02:56 S 13 10.00 Fair CLR 79 66 65% 81 29.88 1009.4
04 01:56 S 13 10.00 Fair CLR 81 66 61% 83 29.89 1009.6
04 00:56 S 14 10.00 Fair CLR 82.9 66 99 82.9 57% 85 29.88 1009.3
03 23:56 S 14 10.00 Fair CLR 84.9 64.9 51% 87 29.86 1008.7
03 22:56 S 14 10.00 Fair CLR 84.9 63 48% 86 29.86 1008.6
03 21:56 SE 14 10.00 Fair CLR 86 64 48% 87 29.84 1008.1
03 20:56 SE 7 10.00 Fair CLR 87.1 59 39% 86 29.81 1007.1
03 19:56 S 7 10.00 Fair CLR 93 57.9 31% 92 29.79 1006.5
03 18:56 S 12 10.00 Fair CLR 100 57 102.9 97 24% 99 29.79 1006.2
03 17:56 S 17 G 23 10.00 Fair CLR 100.9 59 25% 101 29.78 1005.7
03 16:56 S 15 10.00 Fair CLR 102 57.9 23% 102 29.78 1005.8
03 15:56 S 17 G 23 10.00 Fair CLR 102.9 57.9 23% 103 29.79 1006.3
03 14:56 S 21 G 24 10.00 Fair and Breezy CLR 100.9 57.9 24% 101 29.81 1006.8
03 13:56 S 22 G 29 8.00 Fair and Breezy CLR 99 61 29% 100 29.82 1007.2
03 12:56 S 17 G 25 10.00 Fair CLR 97 62.1 97 75.9 32% 98 29.84 1008.0
03 11:56 S 18 G 28 10.00 Fair CLR 93.9 63 36% 95 29.86 1008.5
03 10:56 SW 21 G 28 10.00 Fair and Breezy CLR 90 64 42% 91 29.86 1008.9
03 09:56 SW 20 G 25 6.00 Fair with Haze CLR 87.1 64 46% 88 29.87 1009.1
03 08:56 S 20 10.00 Fair CLR 82.9 64 53% 84 29.86 1009.0
03 07:56 S 8 10.00 Fair CLR 77 63 62% 79 29.87 1009.2
03 06:56 S 12 10.00 Fair CLR 77 62.1 84 77 60% 79 29.87 1009.0
03 05:56 S 13 10.00 Fair CLR 79 62.1 56% 80 29.87 1008.9
03 04:56 S 17 10.00 Fair CLR 81 62.1 53% 82 29.87 1009.0
03 03:56 S 15 10.00 Fair CLR 81 61 51% 82 29.88 1009.1
03 02:56 S 18 10.00 Fair CLR 82 61 49% 83 29.87 1008.8
03 01:56 S 17 10.00 Fair CLR 82.9 60.1 46% 83 29.87 1008.9
03 00:56 S 16 10.00 Fair CLR 84 60.1 99 84 44% 84 29.86 1008.6
02 23:56 S 17 10.00 Fair CLR 84.9 60.1 43% 85 29.86 1008.5
02 22:56 S 21 G 26 10.00 Fair and Breezy CLR 87.1 60.1 40% 87 29.85 1008.3
02 21:56 S 17 10.00 Fair CLR 88 59 38% 87 29.84 1008.2
02 20:56 SE 12 10.00 Fair CLR 87.1 59 39% 86 29.83 1007.9
02 19:56 S 13 10.00 A Few Clouds FEW110 93.9 57.9 30% 93 29.81 1007.4
02 18:56 S 18 G 23 10.00 Fair CLR 99 57 102 99 25% 98 29.81 1007.3
02 17:56 S 16 G 26 10.00 Mostly Cloudy BKN110 100.9 57.9 24% 101 29.81 1007.2
02 16:56 S 24 G 33 10.00 Partly Cloudy and Breezy SCT110 100.9 57.9 24% 101 29.81 1007.2
02 15:56 S 24 G 30 10.00 A Few Clouds and Breezy FEW100 100.9 59 25% 101 29.84 1008.1
02 14:56 S 26 G 33 10.00 Fair and Windy CLR 100.9 59 25% 101 29.86 1008.6
02 13:56 S 24 G 33 10.00 Fair and Breezy CLR 100 57.9 25% 100 29.88 1009.6
02 12:56 S 24 8.00 Fair and Breezy CLR 99 60.1 99 70 28% 99 29.91 1010.4
02 11:56 S 21 10.00 Fair and Breezy CLR 96.1 60.1 30% 96 29.93 1011.2
02 10:56 S 21 G 24 10.00 Fair and Breezy CLR 91.9 61 36% 92 29.94 1011.6
02 09:56 S 17 10.00 Fair CLR 86 60.1 42% 86 29.95 1011.9
02 08:56 S 5 10.00 Fair CLR 79 60.1 52% 80 29.96 1012.5
02 07:56 SW 3 10.00 Fair CLR 73.9 57.9 57% 29.96 1012.6
02 06:56 S 5 10.00 Fair CLR 70 57.9 80.1 69.1 66% 29.95 1012.0
02 05:56 S 3 10.00 Fair CLR 72 57.9 61% 29.95 1011.9
02 04:56 SE 3 10.00 A Few Clouds FEW120 71.1 59 66% 29.95 1012.2
02 03:56 Calm 10.00 A Few Clouds FEW120 73 59 62% 29.95 1012.0
02 02:56 S 6 10.00 Fair CLR 75 57.9 55% 78 29.95 1011.9
02 01:56 S 8 10.00 Fair CLR 78.1 59 52% 79 29.94 1011.6
02 00:56 S 13 10.00 Fair CLR 79 59 95 79 50% 80 29.93 1011.3
01 23:56 S 10 10.00 Fair CLR 80.1 60.1 51% 81 29.93 1011.4
01 22:56 S 10 10.00 Fair CLR 82 60.1 47% 82 29.93 1011.3
01 21:56 SE 9 10.00 Fair CLR 82 60.1 47% 82 29.91 1010.8
01 20:56 SE 9 10.00 Fair CLR 84 59 43% 84 29.89 1010.2
01 19:56 S 9 10.00 Fair CLR 87.1 57.9 37% 86 29.89 1010.2
01 18:56 S 10 10.00 Fair CLR 95 55.9 99 95 27% 93 29.89 1010.1
01 17:56 S 15 10.00 Fair CLR 97 55.9 25% 95 29.9 1010.3
01 16:56 S 16 G 21 10.00 Mostly Cloudy BKN100 97 55.9 25% 95 29.91 1010.7
01 15:56 S 16 G 21 10.00 A Few Clouds FEW100 97 57.9 27% 96 29.92 1011.0
01 14:56 S 17 G 23 10.00 A Few Clouds FEW095 99 59 27% 99 29.94 1011.5
01 13:56 SW 16 10.00 Mostly Cloudy BKN100 97 59 28% 97 29.96 1012.0
01 12:56 SW 10 10.00 A Few Clouds FEW110 97 61 97 69.1 30% 98 29.98 1012.8
01 11:56 SW 9 10.00 Partly Cloudy SCT110 93 62.1 36% 94 30 1013.6
01 10:56 SW 14 10.00 A Few Clouds FEW110 88 61 40% 88 30 1013.7
01 09:56 SW 12 9.00 Fair CLR 84.9 62.1 46% 85 30 1013.5
01 08:56 SW 9 10.00 Fair CLR 78.1 63 60% 80 30.01 1014.1
Date Time (cdt) Wind (mph) Vis. (mi.) Weather Sky Cond. Air Dwpt Max. Min. Relative Humidity Wind Chill (°F) Heat Index (°F) altimeter (in) sea level (mb) 1 hr 3 hr 6 hr
6 hour
Temperature (ºF) Pressure Precipitation (in)